Data for 07/19/2018

Time Sea-Level Adjusted Pressure Absolute Pressure Temperature Relative Humidity Dew Point   
(mb) (inHg) (mb) (inHg) (C) (F) (%) (C) (F)
00:05 1021 30.15 851 25.13 16.9 62.5 41 3.9 38.9
00:10 1021 30.15 851 25.13 16.8 62.2 41 3.6 38.4
00:15 1021 30.15 851 25.13 16.9 62.4 41 3.6 38.5
00:20 1021 30.15 851 25.13 16.7 62.1 42 3.7 38.7
00:25 1021 30.15 851 25.13 16.5 61.6 40 3 37.4
00:30 1021 30.15 851 25.13 16.9 62.5 41 3.7 38.7
00:35 1022 30.18 851 25.13 16.5 61.7 42 3.5 38.3
00:40 1022 30.18 851 25.13 16.4 61.5 40 2.8 37
00:45 1022 30.18 851 25.13 16.6 61.8 43 4.2 39.6
00:50 1022 30.18 851 25.13 16.3 61.4 41 3.3 37.9
00:55 1022 30.18 851 25.13 16.4 61.6 41 3.4 38
01:00 1022 30.18 851 25.13 16.3 61.4 44 4.3 39.7
01:05 1022 30.18 851 25.13 16 60.9 39 2.3 36.2
01:10 1022 30.18 851 25.13 16.4 61.4 39 2.4 36.3
01:15 1022 30.18 851 25.13 16.2 61.1 42 3.4 38.2
01:20 1022 30.18 851 25.13 15.6 60.1 43 3.1 37.6
01:25 1022 30.18 851 25.13 15.5 59.9 42 2.9 37.2
01:30 1022 30.18 851 25.13 15.6 60.1 42 2.7 36.9
01:35 1022 30.18 851 25.13 15.6 60.1 40 2.2 36
01:40 1022 30.18 851 25.13 15.8 60.4 39 2 35.7
01:45 1022 30.18 851 25.13 15.5 59.9 43 3 37.3
01:50 1022 30.18 851 25.13 15.2 59.3 44 3.2 37.8
01:55 1022 30.18 851 25.13 14.9 58.7 44 2.8 37
02:00 1022 30.18 851 25.13 14.8 58.6 42 2.3 36.1
02:05 1022 30.18 851 25.13 14.9 58.7 41 1.8 35.2
02:10 1022 30.18 851 25.13 15 58.9 39 1.4 34.4
02:15 1022 30.18 851 25.13 15.1 59.2 40 1.7 35.1
02:20 1022 30.18 851 25.13 15.1 59.1 40 1.6 34.9
02:25 1022 30.18 851 25.13 15.1 59.1 39 1.2 34.1
02:30 1022 30.18 851 25.13 15 59.1 40 1.6 34.8
02:35 1022 30.18 851 25.13 14.9 58.7 40 1.6 34.8
02:40 1022 30.18 851 25.13 14.6 58.2 42 2 35.6
02:45 1022 30.18 851 25.13 14.1 57.4 45 2.3 36.1
02:50 1022 30.18 851 25.13 13.8 56.9 43 1.6 35
02:55 1022 30.18 851 25.13 13.6 56.4 42 1.1 34
03:00 1022 30.18 851 25.13 13.7 56.7 45 2 35.6
03:05 1022 30.18 851 25.13 13.9 57 40 0.7 33.2
03:10 1022 30.18 851 25.13 14.2 57.6 41 1.4 34.5
03:15 1022 30.18 851 25.13 13.9 57 42 1.4 34.5
03:20 1022 30.18 851 25.13 13.8 56.8 42 1 33.8
03:25 1022 30.18 851 25.13 13.6 56.5 43 1.2 34.2
03:30 1022 30.18 851 25.13 13.7 56.6 41 0.7 33.2
03:35 1022 30.18 851 25.13 13.7 56.7 42 1.1 33.9
03:40 1022 30.18 852 25.16 13.7 56.6 42 1.2 34.2
03:45 1022 30.18 852 25.16 13.4 56 45 1.8 35.2
03:50 1022 30.18 852 25.16 12.9 55.1 47 1.8 35.2
03:55 1022 30.18 852 25.16 12.4 54.4 48 1.9 35.3
04:00 1022 30.18 852 25.16 12.3 54.1 47 1.4 34.6
04:05 1022 30.18 851 25.13 12.3 54.2 47 1.4 34.6
04:10 1022 30.18 851 25.13 12.3 54.2 48 1.7 35.1
04:15 1022 30.18 851 25.13 11.8 53.3 55 3.2 37.7
04:20 1022 30.18 851 25.13 11 51.8 53 1.9 35.4
04:25 1022 30.18 852 25.16 11.5 52.8 47 0.6 33.1
04:30 1022 30.18 852 25.16 12.4 54.3 43 0.3 32.5
04:35 1022 30.18 852 25.16 12.7 54.9 39 -0.7 30.7
04:40 1022 30.18 852 25.16 12.9 55.3 39 -0.5 31.1
04:45 1022 30.18 852 25.16 12.9 55.2 40 -0.2 31.7
04:50 1022 30.18 852 25.16 12.6 54.7 44 0.8 33.4
04:55 1022 30.18 852 25.16 11.9 53.4 45 0.4 32.8
05:00 1022 30.18 852 25.16 11.9 53.3 43 -0.4 31.3
05:05 1022 30.18 852 25.16 12.5 54.5 38 -1.3 29.7
05:10 1022 30.18 852 25.16 13.1 55.6 37 -1 30.2
05:15 1022 30.18 852 25.16 13.1 55.6 38 -0.7 30.7
05:20 1022 30.18 852 25.16 12.8 55.1 41 -0.1 31.8
05:25 1022 30.18 852 25.16 12.5 54.4 41 -0.5 31.2
05:30 1022 30.18 852 25.16 12.6 54.7 44 0.9 33.6
05:35 1022 30.18 852 25.16 12 53.6 47 1.1 34
05:40 1023 30.21 852 25.16 11.6 52.8 48 1 33.8
05:45 1023 30.21 852 25.16 11.6 52.9 47 0.7 33.3
05:50 1023 30.21 852 25.16 12.1 53.8 43 0.1 32.3
05:55 1023 30.21 852 25.16 12.6 54.7 40 -0.4 31.3
06:00 1023 30.21 852 25.16 13.1 55.6 37 -1.1 30.1
06:05 1023 30.21 852 25.16 13.7 56.7 37 -0.5 31.1
06:10 1023 30.21 852 25.16 14 57.1 39 0.3 32.6
06:15 1023 30.21 852 25.16 14.1 57.3 41 1 33.9
06:20 1023 30.21 852 25.16 14 57.2 41 1.2 34.1
06:25 1023 30.21 852 25.16 14.3 57.7 44 2.3 36.1
06:30 1023 30.21 852 25.16 14.3 57.7 42 1.5 34.7
06:35 1023 30.21 852 25.16 14.2 57.5 40 0.9 33.6
06:40 1023 30.21 852 25.16 14.5 58.2 38 0.5 32.9
06:45 1023 30.21 852 25.16 15.1 59.1 36 0.1 32.2
06:50 1023 30.21 852 25.16 15.4 59.7 38 1.1 33.9
06:55 1023 30.21 852 25.16 16.1 61.1 35 0.8 33.5
07:00 1023 30.21 852 25.16 16.2 61.2 36 1.2 34.2
07:05 1023 30.21 852 25.16 16.4 61.5 36 1.4 34.6
07:10 1023 30.21 852 25.16 17 62.5 33 0.8 33.5
07:15 1023 30.21 852 25.16 16.8 62.2 36 1.6 34.9
07:20 1023 30.21 852 25.16 17.1 62.7 35 1.7 35
07:25 1023 30.21 852 25.16 17.8 64 36 2.8 37
07:30 1023 30.21 852 25.16 18.1 64.6 34 2 35.6
07:35 1023 30.21 852 25.16 18.6 65.5 31 1.4 34.4
07:40 1023 30.21 852 25.16 19.4 66.8 31 2 35.6
07:45 1023 30.21 852 25.16 20 68.1 31 2.3 36.2
07:50 1023 30.21 852 25.16 20.2 68.3 30 2.4 36.2
07:55 1023 30.21 852 25.16 20.2 68.4 31 2.7 36.9
08:00 1023 30.21 852 25.16 20.1 68.2 29 1.6 34.9
08:05 1023 30.21 852 25.16 20.3 68.6 30 2.2 36
08:10 1023 30.21 852 25.16 20.6 69.1 26 0.8 33.4
08:15 1023 30.21 852 25.16 20.5 68.8 27 0.8 33.4
08:20 1023 30.21 852 25.16 20.3 68.6 27 0.7 33.3
08:25 1023 30.21 852 25.16 20.5 68.8 26 0.6 33
08:30 1023 30.21 852 25.16 20.3 68.6 27 1 33.8
08:35 1023 30.21 852 25.16 21 69.9 27 1.6 34.9
08:40 1023 30.21 852 25.16 21.8 71.2 26 1.8 35.3
08:45 1023 30.21 852 25.16 22 71.7 25 1.2 34.1
08:50 1023 30.21 852 25.16 22.4 72.2 24 0.7 33.3
08:55 1023 30.21 852 25.16 23 73.4 22 0.4 32.8
09:00 1023 30.21 852 25.16 23 73.5 22 0.3 32.5
09:05 1023 30.21 852 25.16 23 73.4 21 -0.5 31.2
09:10 1023 30.21 852 25.16 22.2 72 24 0.6 33.1
09:15 1023 30.21 852 25.16 21.4 70.5 23 -0.5 31
09:20 1023 30.21 852 25.16 22.1 71.9 22 -0.2 31.6
09:25 1023 30.21 852 25.16 22.9 73.1 20 -1 30.1
09:30 1023 30.21 852 25.16 23.8 74.8 21 0.1 32.2
09:35 1023 30.21 852 25.16 22.9 73.2 23 0.6 33.1
09:40 1023 30.21 852 25.16 23.1 73.6 21 -0.4 31.2
09:45 1023 30.21 852 25.16 23.2 73.8 20 -0.6 31
09:50 1023 30.21 852 25.16 23.5 74.2 20 -0.8 30.5
09:55 1023 30.21 852 25.16 23.8 74.8 21 0.2 32.3
10:00 1023 30.21 852 25.16 23.6 74.4 21 0.1 32.1
10:05 1023 30.21 852 25.16 23.6 74.6 20 -0.5 31.1
10:10 1023 30.21 852 25.16 24.3 75.8 19 -0.3 31.5
10:15 1023 30.21 852 25.16 24.7 76.4 19 -0.4 31.2
10:20 1023 30.21 852 25.16 24.3 75.8 19 -0.7 30.8
10:25 1023 30.21 852 25.16 25 77 18 -0.4 31.4
10:30 1023 30.21 852 25.16 25.2 77.4 17 -1.1 30.1
10:35 1023 30.21 852 25.16 25.3 77.5 17 -1 30.1
10:40 1023 30.21 852 25.16 25.3 77.6 18 -0.5 31.2
10:45 1023 30.21 852 25.16 25 77.1 19 -0.3 31.5
10:50 1023 30.21 852 25.16 25.8 78.4 17 -0.7 30.8
10:55 1023 30.21 852 25.16 26.4 79.4 18 0.2 32.4
11:00 1023 30.21 852 25.16 26.3 79.4 16 -1.6 29.1
11:05 1022 30.18 852 25.16 26.1 78.9 19 0.6 33.1
11:10 1022 30.18 852 25.16 25.8 78.5 18 0.1 32.1
11:15 1022 30.18 852 25.16 26 78.7 17 -1.1 30.1
11:20 1022 30.18 852 25.16 27.3 81.1 18 0.9 33.6
11:25 1022 30.18 852 25.16 26.5 79.6 18 0.3 32.5
11:30 1022 30.18 851 25.13 25.4 77.7 18 -0.1 31.8
11:35 1022 30.18 851 25.13 26 78.7 19 1 33.8
11:40 1022 30.18 851 25.13 26.1 78.9 15 -2.4 27.7
11:45 1022 30.18 851 25.13 26 78.7 17 -0.5 31.1
11:50 1022 30.18 851 25.13 25.5 77.8 18 -0.4 31.2
11:55 1022 30.18 851 25.13 25.7 78.2 16 -1.8 28.7
12:00 1022 30.18 851 25.13 25.4 77.7 18 -0.5 31.1
12:05 1022 30.18 851 25.13 26 78.8 17 -0.7 30.7
12:10 1022 30.18 851 25.13 25.6 78.1 18 -0.4 31.3
12:15 1022 30.18 851 25.13 26 78.8 17 -0.7 30.8
12:20 1022 30.18 851 25.13 25.4 77.8 17 -1.4 29.5
12:25 1022 30.18 851 25.13 26.7 80 15 -1.6 29.1
12:30 1022 30.18 851 25.13 26.8 80.2 16 -0.5 31.2
12:35 1022 30.18 851 25.13 27 80.5 16 -0.8 30.5
12:40 1022 30.18 851 25.13 27.1 80.7 16 -0.4 31.3
12:45 1022 30.18 851 25.13 27.1 80.7 16 -0.8 30.5
12:50 1022 30.18 851 25.13 27.4 81.3 15 -1.2 29.8
12:55 1021 30.15 851 25.13 26.8 80.3 15 -1.4 29.5
13:00 1021 30.15 851 25.13 26.6 79.8 17 -0.3 31.5
13:05 1021 30.15 850 25.1 26.4 79.5 17 -0.6 30.9
13:10 1021 30.15 850 25.1 27.3 81.2 16 -0.7 30.7
13:15 1021 30.15 850 25.1 27 80.6 16 -0.4 31.3
13:20 1021 30.15 850 25.1 27.1 80.7 17 -0.1 31.8
13:25 1021 30.15 850 25.1 27.3 81.2 15 -1.5 29.3
13:30 1021 30.15 850 25.1 26.9 80.5 16 -1.1 30
13:35 1021 30.15 850 25.1 27.1 80.7 15 -1.1 30.1
13:40 1021 30.15 850 25.1 28 82.4 15 -1 30.3
13:45 1021 30.15 850 25.1 28 82.5 15 -0.4 31.3
13:50 1021 30.15 850 25.1 28.4 83 15 -0.4 31.3
13:55 1021 30.15 850 25.1 28.4 83 15 -0.6 30.9
14:00 1021 30.15 850 25.1 27.8 82 15 -0.6 30.9
14:05 1021 30.15 850 25.1 28 82.5 15 -0.6 30.9
14:10 1021 30.15 850 25.1 28.3 83 15 -0.3 31.4
14:15 1021 30.15 850 25.1 28.5 83.3 15 -0.3 31.4
14:20 1021 30.15 850 25.1 28.1 82.6 15 -0.8 30.5
14:25 1021 30.15 850 25.1 27.7 81.8 15 -0.6 31
14:30 1021 30.15 850 25.1 27.6 81.6 15 -1 30.2
14:35 1020 30.12 850 25.1 27.5 81.5 15 -1 30.2
14:40 1020 30.12 850 25.1 26.8 80.3 15 -1.3 29.6
14:45 1020 30.12 849 25.07 27.5 81.4 17 0.2 32.3
14:50 1020 30.12 849 25.07 28.4 83.1 14 -1 30.2
14:55 1020 30.12 849 25.07 28.6 83.5 15 -0.2 31.6
15:00 1020 30.12 849 25.07 27.2 81 17 0.2 32.3
15:05 1020 30.12 849 25.07 27.5 81.4 15 -1.2 29.8
15:10 1020 30.12 849 25.07 27.3 81.1 17 0.1 32.2
15:15 1020 30.12 849 25.07 27.4 81.4 17 0.4 32.7
15:20 1020 30.12 849 25.07 28.5 83.3 14 -1.2 29.9
15:25 1020 30.12 849 25.07 29 84.2 15 0.3 32.5
15:30 1020 30.12 849 25.07 28.2 82.7 15 -0.6 30.8
15:35 1020 30.12 849 25.07 28.7 83.7 14 -0.8 30.5
15:40 1020 30.12 849 25.07 28.8 83.9 14 -0.7 30.7
15:45 1020 30.12 849 25.07 28.8 83.8 14 -1.1 30
15:50 1020 30.12 849 25.07 28.6 83.5 14 -0.7 30.7
15:55 1020 30.12 849 25.07 28.5 83.2 14 -1 30.2
16:00 1020 30.12 849 25.07 28.5 83.2 14 -1.1 29.9
16:05 1020 30.12 849 25.07 28.5 83.4 15 -0.4 31.3
16:10 1020 30.12 849 25.07 27.5 81.5 15 -1.1 29.9
16:15 1020 30.12 849 25.07 28.1 82.6 15 -0.5 31
16:20 1020 30.12 849 25.07 28.7 83.6 14 -0.9 30.4
16:25 1019 30.09 849 25.07 28.3 82.9 14 -1 30.2
16:30 1019 30.09 849 25.07 28.6 83.4 14 -1 30.2
16:35 1019 30.09 849 25.07 29.1 84.5 14 -0.5 31
16:40 1019 30.09 848 25.04 29.2 84.5 14 -0.5 31
16:45 1019 30.09 848 25.04 29.2 84.5 14 -0.5 31.2
16:50 1019 30.09 848 25.04 29.2 84.6 14 -0.6 31
16:55 1019 30.09 848 25.04 29.1 84.3 14 -0.4 31.3
17:00 1019 30.09 848 25.04 29 84.2 14 -1.3 29.7
17:05 1019 30.09 848 25.04 28.6 83.5 14 -1.1 29.9
17:10 1019 30.09 848 25.04 28.9 84 13 -1.7 29
17:15 1019 30.09 848 25.04 28.8 83.9 14 -0.9 30.4
17:20 1019 30.09 848 25.04 28.8 83.8 14 -1.2 29.9
17:25 1019 30.09 848 25.04 28.8 83.9 15 -0.4 31.4
17:30 1019 30.09 848 25.04 29 84.2 14 -0.7 30.8
17:35 1019 30.09 848 25.04 29 84.2 14 -0.7 30.7
17:40 1019 30.09 848 25.04 29 84.1 14 -0.7 30.7
17:45 1019 30.09 848 25.04 28.8 83.9 14 -0.8 30.5
17:50 1019 30.09 848 25.04 28.9 84 13 -1.9 28.5
17:55 1019 30.09 848 25.04 28.9 84.1 14 -1.4 29.6
18:00 1019 30.09 848 25.04 28.1 82.5 14 -1.4 29.4
18:05 1019 30.09 848 25.04 27.9 82.2 15 -0.8 30.5
18:10 1019 30.09 848 25.04 28.3 82.9 13 -2.2 28.1
18:15 1018 30.06 848 25.04 28.4 83.1 14 -1.5 29.4
18:20 1018 30.06 848 25.04 28.5 83.4 14 -1.2 29.9
18:25 1018 30.06 848 25.04 27.6 81.7 14 -2 28.4
18:30 1018 30.06 848 25.04 27.3 81.2 14 -2.1 28.1
18:35 1018 30.06 848 25.04 27.3 81.1 13 -2.8 27
18:40 1018 30.06 848 25.04 27.2 81 15 -1.5 29.3
18:45 1018 30.06 848 25.04 27.3 81.1 14 -2.7 27.1
18:50 1018 30.06 848 25.04 27.2 81 14 -2.5 27.5
18:55 1018 30.06 848 25.04 27.2 80.9 15 -1.8 28.8
19:00 1018 30.06 848 25.04 27.1 80.7 15 -1.9 28.6
19:05 1018 30.06 848 25.04 26.9 80.4 18 1.2 34.1
19:10 1018 30.06 848 25.04 26.6 79.8 21 2.9 37.2
19:15 1018 30.06 848 25.04 26.3 79.3 21 2.5 36.5
19:20 1018 30.06 848 25.04 26 78.7 22 3 37.4
19:25 1018 30.06 848 25.04 25.7 78.3 25 4.7 40.5
19:30 1018 30.06 848 25.04 25.5 77.9 24 3.4 38.2
19:35 1018 30.06 848 25.04 25.4 77.6 23 2.9 37.2
19:40 1018 30.06 848 25.04 25.3 77.5 25 4.2 39.6
19:45 1018 30.06 848 25.04 25.2 77.4 26 4.9 40.8
19:50 1018 30.06 848 25.04 24.7 76.5 28 5 41
19:55 1018 30.06 848 25.04 23.9 74.9 33 6.6 43.9
20:00 1018 30.06 848 25.04 23.3 74 29 4.5 40.1
20:05 1018 30.06 848 25.04 23.1 73.6 31 5.3 41.6
20:10 1019 30.09 848 25.04 22.6 72.7 30 4.3 39.8
20:15 1019 30.09 848 25.04 22.5 72.4 30 4.1 39.3
20:20 1019 30.09 848 25.04 22.4 72.2 30 4.2 39.5
20:25 1019 30.09 848 25.04 22.1 71.7 31 4.5 40
20:30 1019 30.09 848 25.04 21.8 71.2 31 4 39.3
20:35 1019 30.09 848 25.04 21.6 70.9 31 4 39.2
20:40 1019 30.09 848 25.04 21.5 70.7 30 3.5 38.4
20:45 1019 30.09 848 25.04 21.6 70.9 29 3.1 37.6
20:50 1019 30.09 848 25.04 21.8 71.2 29 3.3 37.9
20:55 1019 30.09 848 25.04 21.7 71 30 3.6 38.5
21:00 1019 30.09 848 25.04 21.7 71 30 3.7 38.7
21:05 1019 30.09 848 25.04 22.2 71.9 30 4.1 39.5
21:10 1019 30.09 848 25.04 22.4 72.3 31 4.5 40.1
21:15 1019 30.09 848 25.04 22.4 72.3 31 4.7 40.5
21:20 1019 30.09 848 25.04 22.4 72.3 31 4.8 40.6
21:25 1019 30.09 848 25.04 22.4 72.3 32 5 41
21:30 1019 30.09 848 25.04 22.2 72 32 5.1 41.2
21:35 1019 30.09 848 25.04 22.2 71.9 33 5.3 41.5
21:40 1019 30.09 848 25.04 22.2 71.9 33 5.5 41.8
21:45 1019 30.09 848 25.04 22.1 71.8 34 5.6 42.2
21:50 1019 30.09 849 25.07 22.1 71.7 35 5.9 42.6
21:55 1019 30.09 849 25.07 22 71.7 35 6.1 42.9
22:00 1019 30.09 849 25.07 22 71.6 36 6.3 43.3
22:05 1019 30.09 849 25.07 21.9 71.4 36 6.5 43.7
22:10 1019 30.09 849 25.07 21.7 71 37 6.7 44.1
22:15 1019 30.09 849 25.07 21.6 70.8 38 6.8 44.3
22:20 1019 30.09 849 25.07 21.4 70.6 39 7.1 44.7
22:25 1019 30.09 849 25.07 21.2 70.2 40 7.1 44.8
22:30 1019 30.09 849 25.07 21.2 70.1 40 7.2 45
22:35 1020 30.12 849 25.07 21.1 70 41 7.4 45.3
22:40 1020 30.12 849 25.07 20.7 69.3 43 7.9 46.2
22:45 1020 30.12 849 25.07 20.4 68.7 42 7.2 45
22:50 1020 30.12 849 25.07 20.8 69.4 40 7 44.7
22:55 1020 30.12 849 25.07 20.9 69.7 41 7.4 45.3
23:00 1020 30.12 849 25.07 20.8 69.5 42 7.5 45.5
23:05 1020 30.12 849 25.07 20.6 69.1 43 7.8 46
23:10 1020 30.12 849 25.07 20.1 68.1 45 8 46.3
23:15 1020 30.12 849 25.07 19.8 67.6 45 7.6 45.6
23:20 1020 30.12 849 25.07 19.8 67.7 44 7.4 45.2
23:25 1020 30.12 849 25.07 19.8 67.7 44 7.4 45.3
23:30 1020 30.12 849 25.07 19.5 67 46 7.6 45.6
23:35 1020 30.12 849 25.07 18.9 66.1 47 7.4 45.3
23:40 1020 30.12 849 25.07 18.4 65.1 47 7.1 44.7
23:45 1020 30.12 849 25.07 17.9 64.2 50 7.3 45.2
23:50 1020 30.12 849 25.07 17.5 63.4 49 6.9 44.4
23:55 1020 30.12 849 25.07 17.5 63.4 50 6.9 44.4
24:00 1020 30.12 849 25.07 17.6 63.6 50 7 44.6